Nearby METAR Reports

 

KMTN - Baltimore/Martin, Maryland, USA
Distance from station: SSE 8mi, 13km
Updated: Fri, 22-May-2015 12:45pm EDT
Few Clouds
Few Clouds
 Wind from W
Wind: W 12 mph , 19 km/h, Gust: 20 mph , 31 km/h
Temperature: 73°F , 23°C
Dew Point: 45°F , 7°C
Humidity: 36%
Barometer: 30.08 inHg , 1018.6 hPa
Clouds: Few Clouds
Visibility: 10 miles , 16 km
Cloud details: Few Clouds 6000 ft
2015/05/22 16:45 KMTN 221645Z 26010G17KT 10SM FEW060 23/07 A3008
KDMH - Baltimore/Dwntwn, Maryland, USA
Distance from station: SW 12mi, 19km
Updated: Fri, 22-May-2015 12:54pm EDT

 
Temperature: 72°F , 22°C
Dew Point: 39°F , 4°C
Humidity: 31%
Barometer: 30.08 inHg , 1018.6 hPa
2015/05/22 16:54 KDMH 221654Z AUTO 22/04 A3008 RMK AO1 SLP185 T02170039
 
KBWI - Balto/Wash Intl, Maryland, USA
Distance from station: SSW 20mi, 33km
Updated: Fri, 22-May-2015 12:54pm EDT
Partly cloudy
Partly cloudy
 Wind from W
Wind: W 14 mph , 22 km/h, Gust: 22 mph , 35 km/h
Temperature: 70°F , 21°C
Dew Point: 43°F , 6°C
Humidity: 38%
Barometer: 30.08 inHg , 1018.6 hPa
Clouds: Partly cloudy
Visibility: 10 miles , 16 km
Cloud details: Few Clouds 5000 ft
Partly cloudy 25000 ft
2015/05/22 16:54 KBWI 221654Z 27012G19KT 10SM FEW050 SCT250 21/06 A3008 RMK AO2 SLP184 T02110061
KDMW - Carroll Cnty, Maryland, USA
Distance from station: WNW 30mi, 48km
Updated: Fri, 22-May-2015 1:20pm EDT
Clear
Clear
 Wind from W
Wind: W 16 mph , 26 km/h, Gust: 23 mph , 37 km/h
Temperature: 70°F , 21°C
Dew Point: 41°F , 5°C
Humidity: 35%
Barometer: 30.08 inHg , 1018.6 hPa
Clouds: Clear
Visibility: 10 miles , 16 km
2015/05/22 17:20 KDMW 221720Z AUTO 28014G20KT 10SM CLR 21/05 A3008 RMK AO2
 
KNAK - Annapolis/Naval, Maryland, USA
Distance from station: S 30mi, 48km
Updated: Fri, 22-May-2015 12:54pm EDT
Clear
Clear
 Wind from WNW
Wind: WNW 10 mph , 17 km/h
Temperature: 70°F , 21°C
Dew Point: 43°F , 6°C
Humidity: 38%
Barometer: 30.08 inHg , 1018.6 hPa
Clouds: Clear
Visibility: 10 miles , 16 km
2015/05/22 16:54 KNAK 221654Z AUTO 30009KT 10SM CLR 21/06 A3008 RMK AO2 SLP188 T02060056
KW29 - Stevensville, Maryland, USA
Distance from station: SSE 31mi, 50km
Updated: Fri, 22-May-2015 1:21pm EDT

 Wind from W
Wind: W 7 mph , 11 km/h, Gust: 17 mph , 28 km/h
Barometer: 30.08 inHg , 1018.6 hPa
Visibility: 10 miles , 16 km
2015/05/22 17:21 KW29 221721Z AUTO 28006G15KT 10SM A3008 RMK AO1
 
KCGS - College Park, Maryland, USA
Distance from station: SW 38mi, 61km
Updated: Fri, 22-May-2015 1:20pm EDT
Clear
Clear
 Wind from WNW
Wind: WNW 10 mph , 17 km/h, Gust: 18 mph , 30 km/h
Temperature: 70°F , 21°C
Dew Point: 41°F , 5°C
Humidity: 35%
Barometer: 30.09 inHg , 1019 hPa
Clouds: Clear
Visibility: 10 miles , 16 km
2015/05/22 17:20 KCGS 221720Z AUTO 29009G16KT 260V320 10SM CLR 21/05 A3009 RMK AO1
KGAI - Gaithersburg, Maryland, USA
Distance from station: WSW 40mi, 65km
Updated: Fri, 22-May-2015 1:15pm EDT
Clear
Clear
 Wind from W
Wind: W 13 mph , 20 km/h, Gust: 22 mph , 35 km/h
Temperature: 68°F , 20°C
Dew Point: 45°F , 7°C
Humidity: 43%
Barometer: 30.13 inHg , 1020.3 hPa
Clouds: Clear
Visibility: 10 miles , 16 km
2015/05/22 17:15 KGAI 221715Z AUTO 28011G19KT 250V310 10SM CLR 20/07 A3013 RMK AO1
 
KTHV - York, Pennsylvania, USA
Distance from station: NNW 40mi, 65km
Updated: Fri, 22-May-2015 12:53pm EDT
Partly cloudy
Partly cloudy
 Wind from W
Wind: W 10 mph , 17 km/h, Gust: 23 mph , 37 km/h
Temperature: 70°F , 21°C
Dew Point: 45°F , 7°C
Humidity: 40%
Barometer: 30.05 inHg , 1017.6 hPa
Clouds: Partly cloudy
Visibility: 10 miles , 16 km
Cloud details: Partly cloudy 6500 ft
2015/05/22 16:53 KTHV 221653Z AUTO 27009G20KT 10SM SCT065 21/07 A3005 RMK AO2 SLP177 T02060072
KFDK - Frederick, Maryland, USA
Distance from station: W 47mi, 75km
Updated: Fri, 22-May-2015 12:49pm EDT
Clear
Clear
 Wind from WNW
Wind: WNW 14 mph , 22 km/h, Gust: 28 mph , 44 km/h
Temperature: 70°F , 21°C
Dew Point: 46°F , 8°C
Humidity: 43%
Barometer: 30.13 inHg , 1020.3 hPa
Clouds: Clear
Visibility: 10 miles , 16 km
2015/05/22 16:49 KFDK 221649Z 30012G24KT 10SM SKC 21/08 A3013
 
KESN - Easton/Newnam, Maryland, USA
Distance from station: SSE 48mi, 78km
Updated: Fri, 22-May-2015 12:55pm EDT
Clear
Clear
 Wind from NW
Wind: NW 14 mph , 22 km/h, Gust: 20 mph , 31 km/h
Temperature: 70°F , 21°C
Dew Point: 48°F , 9°C
Humidity: 46%
Barometer: 30.13 inHg , 1020.3 hPa
Clouds: Clear
Visibility: 10 miles , 16 km
2015/05/22 16:55 KESN 221655Z 31012G17KT 10SM SKC 21/09 A3013
KDCA - Washington/Natl, Washington D.c., USA
Distance from station: SW 49mi, 79km
Updated: Fri, 22-May-2015 12:52pm EDT
Few Clouds
Few Clouds
 Wind from NNW
Wind: NNW 14 mph , 22 km/h, Gust: 20 mph , 31 km/h
Temperature: 73°F , 23°C
Dew Point: 43°F , 6°C
Humidity: 33%
Barometer: 30.11 inHg , 1019.6 hPa
Clouds: Few Clouds
Visibility: 10 miles , 16 km
Cloud details: Few Clouds 6000 ft
2015/05/22 16:52 KDCA 221652Z 33012G17KT 10SM FEW060 23/06 A3011 RMK AO2 PK WND 30026/1602 SLP196 T02280056
 
KLNS - Lancaster, Pennsylvania, USA
Distance from station: N 49mi, 79km
Updated: Fri, 22-May-2015 12:53pm EDT

 Wind from WNW
Wind: WNW 16 mph , 26 km/h, Gust: 28 mph , 44 km/h
Temperature: 70°F , 21°C
Dew Point: 45°F , 7°C
Humidity: 40%
Barometer: 30.02 inHg , 1016.6 hPa
Visibility: 10 miles , 16 km
2015/05/22 16:53 KLNS 221653Z AUTO 29014G24KT 10SM 21/07 A3002 RMK AO2 SLP164 T02060067
KILG - Wilmington, Delaware, USA
Distance from station: ENE 50mi, 81km
Updated: Fri, 22-May-2015 12:51pm EDT
Clear
Clear
 Wind from W
Wind: W 16 mph , 26 km/h, Gust: 25 mph , 41 km/h
Temperature: 73°F , 23°C
Dew Point: 45°F , 7°C
Humidity: 36%
Barometer: 30.03 inHg , 1016.9 hPa
Clouds: Clear
Visibility: 10 miles , 16 km
2015/05/22 16:51 KILG 221651Z 28014G22KT 10SM CLR 23/07 A3003 RMK AO2 PK WND 29028/1627 SLP167 T02280067